Time;durP1;ratioP1;P1;durP2;ratioP2;P2;SDS_P1;SDS_P2;PMS_P1;PMS_P2;Temp;Humidity;BMP_temperature;BMP_pressure;BME280_temperature;BME280_humidity;BME280_pressure;Samples;Min_cycle;Max_cycle;Signal;HPM_P1;HPM_P2
2022/07/06 00:02:14;;;;;;;6.85;2.40;;;17.80;78.30;;;;;;5049139;28;20040;-89
2022/07/06 00:04:47;;;;;;;5.32;2.28;;;17.70;78.30;;;;;;5087267;28;20109;-90
2022/07/06 00:14:57;;;;;;;5.13;1.88;;;17.60;79.00;;;;;;5053492;28;20033;-89
2022/07/06 00:20:48;;;;;;;5.55;2.13;;;17.60;79.80;;;;;;5069835;28;20120;-89
2022/07/06 00:23:21;;;;;;;5.28;1.92;;;17.60;80.00;;;;;;5090135;28;20028;-90
2022/07/06 00:25:57;;;;;;;4.13;1.80;;;17.50;80.20;;;;;;5062805;28;20016;-90
2022/07/06 00:28:26;;;;;;;5.38;2.22;;;17.50;80.40;;;;;;5076582;28;20495;-91
2022/07/06 00:31:05;;;;;;;;;;;;;;;;;;;;;
2022/07/06 00:33:40;;;;;;;4.20;1.77;;;17.50;81.00;;;;;;5062271;28;20345;-90
2022/07/06 00:36:09;;;;;;;6.68;2.17;;;17.40;81.10;;;;;;5090814;28;20029;-90
2022/07/06 00:41:52;;;;;;;6.18;2.28;;;17.40;81.60;;;;;;5056335;28;20064;-89
2022/07/06 00:51:18;;;;;;;4.50;2.10;;;17.30;82.50;;;;;;5056102;28;20040;-88
2022/07/06 00:54:13;;;;;;;6.90;2.00;;;17.30;82.80;;;;;;5039455;28;20392;-90
2022/07/06 00:57:15;;;;;;;4.25;1.60;;;17.20;83.20;;;;;;5010897;28;20073;-90
2022/07/06 00:59:44;;;;;;;5.93;2.10;;;17.20;83.60;;;;;;5052527;28;20124;-89
2022/07/06 01:03:05;;;;;;;8.88;2.03;;;17.10;83.80;;;;;;5019513;28;20036;-89
2022/07/06 01:05:35;;;;;;;6.13;2.13;;;17.10;84.10;;;;;;5020240;28;20526;-89
2022/07/06 01:08:17;;;;;;;4.10;2.00;;;17.10;84.40;;;;;;5020048;28;20112;-89
2022/07/06 01:10:54;;;;;;;3.50;1.95;;;17.00;84.60;;;;;;5019787;28;20471;-88
2022/07/06 01:13:23;;;;;;;3.47;1.77;;;17.00;84.90;;;;;;5019202;28;20033;-90
2022/07/06 01:15:54;;;;;;;5.57;1.70;;;17.00;85.20;;;;;;5035767;28;20032;-89
2022/07/06 01:18:23;;;;;;;7.32;2.13;;;17.00;85.40;;;;;;5019543;28;20025;-90
2022/07/06 01:21:33;;;;;;;6.75;2.08;;;16.90;85.70;;;;;;5019581;28;20037;-89
2022/07/06 01:24:02;;;;;;;7.53;1.95;;;17.00;86.00;;;;;;5018936;28;20055;-90
2022/07/06 01:30:19;;;;;;;7.20;2.00;;;16.90;86.70;;;;;;5036093;28;20021;-90
2022/07/06 01:32:45;;;;;;;4.28;1.70;;;16.80;87.00;;;;;;5035336;28;20465;-89
2022/07/06 01:35:15;;;;;;;3.08;1.80;;;16.80;87.20;;;;;;5018466;28;20029;-90
2022/07/06 01:37:43;;;;;;;5.35;1.95;;;16.80;87.40;;;;;;5052092;28;20036;-90
2022/07/06 01:40:11;;;;;;;3.13;1.85;;;16.80;87.60;;;;;;5018975;28;20026;-90
2022/07/06 01:42:41;;;;;;;4.85;1.88;;;16.70;87.70;;;;;;5018239;28;20040;-89
2022/07/06 01:45:10;;;;;;;4.03;2.10;;;16.70;88.00;;;;;;5018791;28;20026;-89
2022/07/06 01:48:18;;;;;;;4.18;2.10;;;16.70;88.20;;;;;;5051421;28;20037;-90
2022/07/06 01:50:24;;;;;;;5.18;2.00;;;16.60;88.60;;;;;;5025657;28;20035;-91
2022/07/06 01:53:16;;;;;;;5.10;2.17;;;16.60;89.00;;;;;;5018286;28;20021;-90
2022/07/06 01:55:45;;;;;;;5.53;1.98;;;16.60;89.30;;;;;;5031968;28;20537;-90
2022/07/06 01:58:14;;;;;;;3.83;1.88;;;16.60;89.50;;;;;;5040633;28;20556;-90
2022/07/06 02:00:50;;;;;;;4.82;2.00;;;16.50;89.70;;;;;;5051909;28;20037;-91
2022/07/06 02:03:35;;;;;;;4.45;1.98;;;16.60;90.00;;;;;;5034762;28;20022;-90
2022/07/06 02:06:05;;;;;;;4.55;1.88;;;16.50;90.10;;;;;;5035164;28;20469;-89
2022/07/06 02:11:39;;;;;;;7.45;2.30;;;16.40;90.30;;;;;;5059879;28;20055;-90
2022/07/06 02:14:05;;;;;;;5.78;2.30;;;16.40;90.40;;;;;;5035377;28;20485;-89
2022/07/06 02:16:34;;;;;;;6.30;2.30;;;16.40;90.50;;;;;;5034395;28;20021;-89
2022/07/06 02:19:00;;;;;;;7.25;2.00;;;16.40;90.70;;;;;;5035071;28;20440;-90
2022/07/06 02:21:30;;;;;;;6.75;2.17;;;16.30;90.80;;;;;;5034754;28;20062;-90
2022/07/06 02:24:01;;;;;;;9.43;2.65;;;16.30;90.90;;;;;;5031422;28;20034;-90
2022/07/06 02:26:27;;;;;;;6.53;2.13;;;16.30;91.00;;;;;;5033875;28;20513;-90
2022/07/06 02:28:58;;;;;;;3.97;1.85;;;16.20;91.20;;;;;;5050998;28;20071;-90
2022/07/06 02:31:24;;;;;;;3.88;2.20;;;16.20;91.40;;;;;;5035730;28;20481;-89
2022/07/06 02:34:12;;;;;;;5.90;2.55;;;16.20;91.60;;;;;;5035792;28;20040;-91
2022/07/06 02:37:18;;;;;;;6.57;2.50;;;16.20;91.80;;;;;;5035944;28;20025;-90
2022/07/06 02:39:55;;;;;;;3.88;2.13;;;16.20;92.00;;;;;;5068970;28;20048;-91
2022/07/06 02:42:30;;;;;;;5.03;2.30;;;16.10;92.10;;;;;;5068346;28;20021;-90
2022/07/06 02:45:10;;;;;;;6.13;2.45;;;16.10;92.30;;;;;;5033715;28;20033;-88
2022/07/06 02:47:37;;;;;;;6.40;2.28;;;16.00;92.40;;;;;;5034148;28;20446;-89
2022/07/06 02:50:09;;;;;;;5.25;2.20;;;16.00;92.70;;;;;;5034825;28;20017;-90
2022/07/06 02:52:40;;;;;;;6.95;2.65;;;16.00;92.90;;;;;;5051752;28;20034;-88
2022/07/06 02:55:09;;;;;;;5.03;2.22;;;16.00;93.10;;;;;;5052363;28;20021;-89
2022/07/06 02:57:38;;;;;;;6.72;2.50;;;15.90;93.40;;;;;;5085713;28;20026;-90
2022/07/06 03:00:34;;;;;;;6.45;2.13;;;15.90;93.60;;;;;;5070219;28;20048;-90
2022/07/06 03:03:15;;;;;;;6.78;2.50;;;15.90;93.70;;;;;;5073833;28;20032;-90
2022/07/06 03:05:49;;;;;;;5.35;2.33;;;15.90;93.80;;;;;;5073204;28;20021;-88
2022/07/06 03:08:15;;;;;;;4.43;2.28;;;15.90;94.00;;;;;;5021156;28;20042;-89
2022/07/06 03:10:41;;;;;;;6.53;2.17;;;15.80;94.10;;;;;;5024305;28;20037;-90
2022/07/06 03:13:10;;;;;;;4.75;2.05;;;15.80;94.20;;;;;;5049920;28;20116;-89
2022/07/06 03:15:39;;;;;;;4.30;2.10;;;15.80;94.40;;;;;;5030849;28;20103;-89
2022/07/06 03:18:08;;;;;;;5.38;2.05;;;15.80;94.50;;;;;;5054538;28;20045;-88
2022/07/06 03:20:34;;;;;;;7.53;2.30;;;15.70;94.60;;;;;;5068913;28;20025;-90
2022/07/06 03:23:00;;;;;;;6.22;2.45;;;15.70;94.70;;;;;;5085257;28;20059;-89
2022/07/06 03:26:06;;;;;;;7.50;1.90;;;15.70;94.80;;;;;;5051558;28;20055;-90
2022/07/06 03:32:31;;;;;;;;;;;;;;;;;;;;;
2022/07/06 03:35:02;;;;;;;11.52;2.33;;;15.60;95.10;;;;;;5056434;28;20021;-91
2022/07/06 03:37:33;;;;;;;5.95;2.20;;;15.60;95.40;;;;;;5039639;28;20051;-90
2022/07/06 03:40:04;;;;;;;5.22;2.05;;;15.60;95.60;;;;;;5036594;28;20033;-90
2022/07/06 03:42:50;;;;;;;7.78;2.25;;;15.50;95.80;;;;;;5036811;28;20119;-90
2022/07/06 03:45:16;;;;;;;4.38;2.10;;;15.60;96.00;;;;;;5052524;28;20048;-90
2022/07/06 03:47:44;;;;;;;7.97;2.90;;;15.60;96.20;;;;;;5053695;28;20021;-90
2022/07/06 03:50:31;;;;;;;;;;;;;;;;;;;;;
2022/07/06 03:52:59;;;;;;;9.63;2.60;;;15.60;96.50;;;;;;5053921;28;20053;-90
2022/07/06 03:55:28;;;;;;;3.55;2.08;;;15.60;96.60;;;;;;5053571;28;20029;-91
2022/07/06 03:58:02;;;;;;;3.25;2.00;;;15.60;96.70;;;;;;5054222;28;20021;-90
2022/07/06 04:04:26;;;;;;;5.53;2.40;;;15.50;96.90;;;;;;5069587;28;20388;-89
2022/07/06 04:06:52;;;;;;;6.28;2.42;;;15.60;97.00;;;;;;5059780;28;20107;-90
2022/07/06 04:09:27;;;;;;;6.70;2.55;;;15.60;97.20;;;;;;5057420;28;20052;-88
2022/07/06 04:11:53;;;;;;;7.60;2.38;;;15.50;97.30;;;;;;5042121;28;20033;-90
2022/07/06 04:14:27;;;;;;;3.78;1.90;;;15.50;97.30;;;;;;5040618;28;20105;-89
2022/07/06 04:16:57;;;;;;;3.88;2.10;;;15.50;97.50;;;;;;5073634;28;20047;-90
2022/07/06 04:19:25;;;;;;;7.55;2.28;;;15.50;97.60;;;;;;5074474;28;20025;-90
2022/07/06 04:22:06;;;;;;;;;;;;;;;;;;;;;
2022/07/06 04:24:32;;;;;;;;;;;15.50;97.70;;;;;;5056467;28;20032;-90
2022/07/06 04:27:06;;;;;;;4.25;2.10;;;15.40;97.80;;;;;;5058101;28;19928;-90
2022/07/06 04:30:25;;;;;;;7.15;2.30;;;15.40;97.90;;;;;;5057735;28;20040;-91
2022/07/06 04:39:44;;;;;;;4.75;2.20;;;15.40;98.50;;;;;;5057487;28;20025;-89
2022/07/06 04:45:46;;;;;;;6.05;2.65;;;15.40;98.80;;;;;;5058021;28;20420;-90
2022/07/06 04:48:39;;;;;;;5.65;2.67;;;15.40;99.10;;;;;;5030607;28;20080;-90
2022/07/06 04:51:35;;;;;;;5.00;2.30;;;15.40;99.00;;;;;;4957941;29;20070;-89
2022/07/06 04:54:27;;;;;;;7.35;3.08;;;15.40;99.20;;;;;;4958936;28;20053;-90
2022/07/06 05:04:55;;;;;;;5.47;2.78;;;15.30;99.60;;;;;;4976718;28;20470;-90
2022/07/06 05:07:39;;;;;;;;;;;;;;;;;;;;;
2022/07/06 05:10:47;;;;;;;4.28;2.33;;;15.30;99.90;;;;;;5022284;28;20108;-93
2022/07/06 05:16:43;;;;;;;5.03;2.10;;;15.30;99.90;;;;;;5065588;28;20033;-93
2022/07/06 05:19:18;;;;;;;5.30;2.30;;;15.30;99.90;;;;;;5051220;28;20031;-91
2022/07/06 05:22:33;;;;;;;6.13;2.92;;;15.30;99.90;;;;;;5076425;28;20037;-93
2022/07/06 05:25:08;;;;;;;6.82;2.95;;;15.30;99.90;;;;;;5082851;28;20388;-90
2022/07/06 05:27:34;;;;;;;6.38;2.35;;;15.40;99.90;;;;;;5048736;28;20022;-79
2022/07/06 05:30:15;;;;;;;9.23;2.58;;;15.40;99.90;;;;;;5073995;28;20029;-86
2022/07/06 05:32:57;;;;;;;5.07;1.92;;;15.40;99.90;;;;;;5028792;28;20120;-88
2022/07/06 05:36:00;;;;;;;4.63;2.00;;;15.40;99.90;;;;;;5035760;28;20616;-88
2022/07/06 06:06:02;;;;;;;3.00;1.42;;;15.70;99.90;;;;;;5033637;28;20127;-88
2022/07/06 06:12:09;;;;;;;2.22;1.10;;;15.80;99.90;;;;;;5035470;28;20470;-88
2022/07/06 06:14:35;;;;;;;5.15;0.90;;;15.90;99.90;;;;;;5051605;28;20108;-88
2022/07/06 06:17:01;;;;;;;5.90;1.60;;;15.90;99.90;;;;;;5051229;28;20060;-87
2022/07/06 06:23:52;;;;;;;3.70;0.98;;;16.00;99.90;;;;;;5034926;28;20060;-88
2022/07/06 06:44:10;;;;;;;12.32;1.48;;;16.40;99.90;;;;;;5033260;28;20408;-88
2022/07/06 07:01:23;;;;;;;2.60;0.93;;;16.80;99.90;;;;;;5031815;28;20119;-88
2022/07/06 07:07:22;;;;;;;2.65;1.30;;;17.00;99.90;;;;;;5031666;28;20060;-88
2022/07/06 07:09:48;;;;;;;4.30;1.00;;;17.10;99.90;;;;;;5013037;28;20030;-80
2022/07/06 07:12:14;;;;;;;2.15;0.90;;;17.10;99.90;;;;;;4998321;28;20116;-80
2022/07/06 07:14:41;;;;;;;2.80;0.95;;;17.20;99.90;;;;;;5048373;28;20280;-79
2022/07/06 07:17:06;;;;;;;2.17;0.70;;;17.20;99.90;;;;;;5048463;28;20048;-80
2022/07/06 07:19:32;;;;;;;4.97;1.45;;;17.30;99.90;;;;;;5033294;28;20033;-81
2022/07/06 07:21:58;;;;;;;2.75;0.90;;;17.40;99.90;;;;;;5015019;28;20037;-83
2022/07/06 07:24:24;;;;;;;14.23;2.25;;;17.50;99.90;;;;;;4981980;28;20030;-79
2022/07/06 07:26:49;;;;;;;2.00;0.88;;;17.50;99.90;;;;;;5032001;28;20025;-79
2022/07/06 07:29:15;;;;;;;5.05;1.10;;;17.60;99.90;;;;;;4986869;28;20053;-79
2022/07/06 07:31:41;;;;;;;3.90;1.10;;;17.70;99.90;;;;;;5046359;28;20037;-79
2022/07/06 07:34:07;;;;;;;4.22;0.85;;;17.80;99.90;;;;;;5080244;28;20131;-78
2022/07/06 07:36:32;;;;;;;5.40;1.40;;;17.80;99.90;;;;;;5079455;28;20567;-79
2022/07/06 07:38:58;;;;;;;4.10;1.00;;;17.90;99.90;;;;;;5018532;28;20076;-78
2022/07/06 07:41:24;;;;;;;3.25;0.82;;;17.90;99.90;;;;;;5052672;28;20069;-81
2022/07/06 07:43:50;;;;;;;2.15;0.65;;;18.00;99.90;;;;;;5032064;28;20412;-79
2022/07/06 07:46:18;;;;;;;2.67;0.60;;;18.10;99.90;;;;;;5058577;28;20025;-79
2022/07/06 07:48:44;;;;;;;2.90;0.60;;;18.10;99.90;;;;;;5034698;28;20073;-79
2022/07/06 07:51:09;;;;;;;2.95;0.70;;;18.20;99.90;;;;;;5065454;28;20497;-80
2022/07/06 07:53:35;;;;;;;0.88;0.40;;;18.30;99.90;;;;;;5053794;28;20373;-79
2022/07/06 07:56:01;;;;;;;3.05;0.70;;;18.40;99.80;;;;;;5038284;28;20505;-79
2022/07/06 07:58:27;;;;;;;4.13;1.17;;;18.40;99.60;;;;;;5013478;28;20112;-79
2022/07/06 08:00:52;;;;;;;5.15;0.75;;;18.50;99.40;;;;;;5012904;28;20489;-79
2022/07/06 08:03:18;;;;;;;2.75;0.75;;;18.60;99.10;;;;;;5034833;28;20037;-80
2022/07/06 08:05:44;;;;;;;3.25;0.60;;;18.60;98.80;;;;;;5084157;28;20083;-78
2022/07/06 08:08:10;;;;;;;1.98;0.50;;;18.70;98.30;;;;;;5064452;28;20049;-78
2022/07/06 08:10:36;;;;;;;4.05;0.60;;;18.70;98.10;;;;;;5047687;28;20021;-79
2022/07/06 08:13:04;;;;;;;2.25;0.50;;;18.80;97.80;;;;;;5031383;28;20445;-80
2022/07/06 08:15:31;;;;;;;2.35;0.55;;;18.90;97.50;;;;;;5050588;28;20036;-79
2022/07/06 08:17:56;;;;;;;1.80;0.50;;;19.00;97.20;;;;;;5048533;28;20119;-78
2022/07/06 08:20:22;;;;;;;1.90;0.50;;;19.00;96.80;;;;;;5047056;28;20100;-79
2022/07/06 08:22:49;;;;;;;1.10;0.50;;;19.10;96.50;;;;;;5021611;28;20413;-79
2022/07/06 08:25:14;;;;;;;1.27;0.43;;;19.10;95.90;;;;;;5049423;28;20021;-78
2022/07/06 08:27:40;;;;;;;1.42;0.30;;;19.20;95.60;;;;;;5033056;28;20033;-79
2022/07/06 08:30:07;;;;;;;1.88;0.50;;;19.20;95.30;;;;;;5051941;28;20461;-79
2022/07/06 08:32:39;;;;;;;1.48;0.50;;;19.20;95.00;;;;;;5061805;28;20048;-79
2022/07/06 08:35:05;;;;;;;1.63;0.50;;;19.30;94.80;;;;;;5050156;28;20052;-78
2022/07/06 08:37:31;;;;;;;2.20;0.63;;;19.40;94.80;;;;;;5032637;28;20018;-80
2022/07/06 08:39:57;;;;;;;2.40;0.70;;;19.40;94.90;;;;;;5035610;28;20543;-83
2022/07/06 08:42:29;;;;;;;0.85;0.38;;;19.50;94.80;;;;;;5016050;28;20029;-81
2022/07/06 08:44:56;;;;;;;2.53;0.60;;;19.60;94.60;;;;;;5036250;28;20025;-81
2022/07/06 08:47:27;;;;;;;2.67;0.70;;;19.60;94.20;;;;;;5050429;28;20043;-85
2022/07/06 08:49:53;;;;;;;3.00;0.82;;;19.70;93.90;;;;;;5020139;28;20071;-81
2022/07/06 08:52:19;;;;;;;3.35;1.10;;;19.80;93.60;;;;;;5032803;28;20068;-82
2022/07/06 08:54:45;;;;;;;2.15;0.80;;;19.80;93.00;;;;;;4987233;28;20034;-81
2022/07/06 08:57:17;;;;;;;4.80;0.80;;;19.90;92.60;;;;;;5056861;28;20427;-84
2022/07/06 08:59:43;;;;;;;2.25;0.55;;;20.00;92.40;;;;;;5049840;28;20068;-82
2022/07/06 09:02:13;;;;;;;2.58;0.80;;;20.00;92.30;;;;;;5030835;28;20070;-82
2022/07/06 09:04:58;;;;;;;1.40;0.63;;;20.00;92.30;;;;;;5042568;28;20029;-85
2022/07/06 09:07:30;;;;;;;1.85;0.70;;;20.00;92.20;;;;;;5071498;28;20044;-85
2022/07/06 09:09:59;;;;;;;2.03;0.68;;;20.10;92.20;;;;;;5034962;28;20017;-83
2022/07/06 09:12:27;;;;;;;1.27;0.47;;;20.10;92.10;;;;;;5052263;28;20028;-83
2022/07/06 09:14:59;;;;;;;1.88;0.52;;;20.30;91.90;;;;;;5034336;28;20072;-82
2022/07/06 09:17:45;;;;;;;1.17;0.30;;;20.30;91.80;;;;;;5050639;28;20111;-81
2022/07/06 09:20:14;;;;;;;1.67;0.50;;;20.30;91.60;;;;;;5035649;28;20028;-83
2022/07/06 09:22:48;;;;;;;0.65;0.30;;;20.40;91.40;;;;;;5050544;28;20051;-85
2022/07/06 09:25:15;;;;;;;3.08;0.80;;;20.50;91.40;;;;;;5046422;28;20384;-86
2022/07/06 09:27:54;;;;;;;0.73;0.25;;;20.50;91.10;;;;;;5074172;28;20031;-83
2022/07/06 09:30:22;;;;;;;1.27;0.82;;;20.60;90.60;;;;;;5042875;28;20029;-87
2022/07/06 09:32:58;;;;;;;2.42;0.60;;;20.60;90.40;;;;;;5042612;28;20056;-81
2022/07/06 09:35:30;;;;;;;1.85;0.68;;;20.60;90.20;;;;;;5061179;28;20025;-82
2022/07/06 09:38:08;;;;;;;1.48;0.60;;;20.70;90.00;;;;;;5038420;28;20021;-81
2022/07/06 09:40:42;;;;;;;1.83;0.50;;;20.70;89.20;;;;;;5036583;28;20488;-84
2022/07/06 09:43:21;;;;;;;0.65;0.32;;;20.80;89.20;;;;;;5036649;28;20081;-83
2022/07/06 09:45:55;;;;;;;1.38;0.22;;;20.80;89.10;;;;;;5070995;28;20032;-83
2022/07/06 09:48:22;;;;;;;1.98;0.47;;;20.90;89.30;;;;;;5048624;28;20484;-83
2022/07/06 09:50:51;;;;;;;2.22;0.63;;;21.00;90.00;;;;;;5036635;28;20067;-82
2022/07/06 09:53:18;;;;;;;3.10;0.60;;;21.00;89.40;;;;;;5036437;28;20017;-83
2022/07/06 09:55:48;;;;;;;1.52;0.38;;;21.10;89.10;;;;;;5035949;28;20512;-85
2022/07/06 09:58:18;;;;;;;3.55;0.45;;;21.20;88.50;;;;;;5035846;28;20049;-83
2022/07/06 10:00:49;;;;;;;1.02;0.30;;;21.20;87.90;;;;;;5036199;28;20032;-77
2022/07/06 10:03:15;;;;;;;;;;;21.20;86.80;;;;;;5082873;28;20476;-80
2022/07/06 10:05:43;;;;;;;2.63;0.43;;;21.30;85.90;;;;;;5045380;28;20307;-81
2022/07/06 10:08:09;;;;;;;2.50;0.60;;;21.30;85.50;;;;;;5038696;28;20046;-79
2022/07/06 10:10:37;;;;;;;1.15;0.40;;;21.30;84.70;;;;;;5032860;28;20028;-79
2022/07/06 10:13:05;;;;;;;1.90;0.45;;;21.30;83.90;;;;;;5015721;28;20052;-81
2022/07/06 10:15:36;;;;;;;1.20;0.60;;;21.40;83.90;;;;;;5033592;28;20017;-79
2022/07/06 10:18:04;;;;;;;1.40;0.30;;;21.40;84.00;;;;;;5015462;28;20036;-80
2022/07/06 10:20:39;;;;;;;1.52;0.60;;;21.40;83.90;;;;;;5033635;28;20083;-80
2022/07/06 10:23:06;;;;;;;1.10;0.38;;;21.40;84.20;;;;;;5033973;28;20461;-79
2022/07/06 10:25:35;;;;;;;1.73;0.30;;;21.50;84.60;;;;;;5034083;28;20512;-80
2022/07/06 10:28:02;;;;;;;1.75;0.30;;;21.50;84.20;;;;;;5015652;28;20100;-79
2022/07/06 10:30:29;;;;;;;1.15;0.40;;;21.60;84.10;;;;;;5015570;28;20013;-79
2022/07/06 10:33:00;;;;;;;1.33;0.30;;;21.70;84.10;;;;;;5031930;28;20069;-78
2022/07/06 10:35:26;;;;;;;1.02;0.50;;;21.70;83.20;;;;;;5015666;28;20469;-83
2022/07/06 10:38:06;;;;;;;4.90;0.90;;;21.70;82.50;;;;;;5015894;28;20029;-81
2022/07/06 10:43:20;;;;;;;3.03;0.63;;;21.80;81.30;;;;;;5050850;28;20071;-80
2022/07/06 10:45:46;;;;;;;2.38;0.60;;;21.80;81.70;;;;;;5040453;28;20037;-80
2022/07/06 10:48:11;;;;;;;2.53;0.65;;;21.90;81.10;;;;;;5048377;28;20473;-81
2022/07/06 10:50:46;;;;;;;2.50;0.47;;;21.90;80.70;;;;;;5048049;28;20424;-80
2022/07/06 10:53:12;;;;;;;2.92;0.60;;;22.00;80.30;;;;;;5021209;28;20034;-81
2022/07/06 10:55:40;;;;;;;3.22;0.50;;;22.00;80.30;;;;;;5048007;28;20038;-82
2022/07/06 10:58:06;;;;;;;4.55;0.82;;;22.00;79.40;;;;;;5032774;28;20025;-80
2022/07/06 11:00:53;;;;;;;2.03;0.60;;;22.10;79.30;;;;;;5032848;28;20028;-80
2022/07/06 11:03:57;;;;;;;2.72;0.70;;;22.10;80.00;;;;;;5000956;28;20029;-79
2022/07/06 11:06:27;;;;;;;1.58;0.57;;;22.10;80.10;;;;;;5032163;28;20036;-82
2022/07/06 11:09:06;;;;;;;1.80;0.63;;;22.20;79.80;;;;;;5050103;28;20116;-81
2022/07/06 11:11:34;;;;;;;1.45;0.60;;;22.20;80.00;;;;;;5034955;28;20028;-82
2022/07/06 11:14:04;;;;;;;2.28;0.60;;;22.20;79.70;;;;;;5037679;28;20026;-80
2022/07/06 11:16:37;;;;;;;2.57;0.70;;;22.30;79.50;;;;;;5033553;28;20034;-81
2022/07/06 11:19:05;;;;;;;3.10;0.73;;;22.30;78.90;;;;;;5032380;28;20025;-84
2022/07/06 11:21:39;;;;;;;1.60;0.50;;;22.40;77.20;;;;;;5031120;28;20026;-80
2022/07/06 11:24:09;;;;;;;2.17;0.60;;;22.40;76.40;;;;;;5015242;28;20036;-81
2022/07/06 11:26:36;;;;;;;2.78;0.55;;;22.40;76.60;;;;;;5015073;28;20592;-81
2022/07/06 11:29:04;;;;;;;3.10;0.60;;;22.40;75.80;;;;;;5031330;28;20457;-82
2022/07/06 11:31:32;;;;;;;1.25;0.60;;;22.50;75.50;;;;;;5014779;28;20072;-81
2022/07/06 11:33:58;;;;;;;2.58;0.68;;;22.50;73.70;;;;;;5031387;28;20022;-80
2022/07/06 11:36:24;;;;;;;3.85;0.68;;;22.60;73.90;;;;;;5014348;28;20037;-81
2022/07/06 11:38:50;;;;;;;0.90;0.43;;;22.60;74.60;;;;;;5031542;28;20362;-79
2022/07/06 11:41:18;;;;;;;4.25;1.02;;;22.70;74.30;;;;;;5047819;28;20025;-80
2022/07/06 11:43:46;;;;;;;4.75;0.90;;;22.70;73.70;;;;;;5031915;28;20072;-79
2022/07/06 11:46:29;;;;;;;3.38;0.90;;;22.80;72.90;;;;;;5031181;28;20105;-80
2022/07/06 11:49:05;;;;;;;2.20;0.52;;;22.90;72.40;;;;;;5029365;28;20017;-81
2022/07/06 11:51:37;;;;;;;2.00;0.60;;;22.90;71.40;;;;;;5023124;28;20120;-81
2022/07/06 11:54:11;;;;;;;3.08;1.00;;;22.90;71.30;;;;;;5015307;28;20017;-81
2022/07/06 11:56:44;;;;;;;4.65;1.38;;;22.90;71.60;;;;;;5022906;28;20018;-81
2022/07/06 11:59:10;;;;;;;2.00;0.68;;;22.90;71.70;;;;;;5014212;28;20512;-79
2022/07/06 12:01:41;;;;;;;2.08;0.85;;;22.90;71.60;;;;;;5014570;28;20112;-81
2022/07/06 12:04:07;;;;;;;4.75;0.68;;;22.90;71.40;;;;;;5032294;28;20025;-81
2022/07/06 12:06:33;;;;;;;4.63;0.90;;;22.90;70.90;;;;;;5034536;28;20041;-79
2022/07/06 12:09:03;;;;;;;4.10;0.95;;;22.90;71.30;;;;;;5039161;28;20025;-92
2022/07/06 12:11:31;;;;;;;1.35;0.60;;;23.00;72.10;;;;;;5037235;28;20072;-89
2022/07/06 12:14:02;;;;;;;2.05;0.47;;;23.00;70.90;;;;;;5044884;28;20037;-87
2022/07/06 12:16:34;;;;;;;2.97;0.98;;;23.10;70.00;;;;;;5035955;28;20020;-90
2022/07/06 12:19:04;;;;;;;3.10;0.80;;;23.10;70.70;;;;;;5040790;28;20021;-92
2022/07/06 12:21:30;;;;;;;3.87;0.80;;;23.10;69.60;;;;;;5039378;28;20059;-95
2022/07/06 12:23:56;;;;;;;2.70;0.70;;;23.20;70.10;;;;;;5059274;28;20354;-86
2022/07/06 12:26:25;;;;;;;2.67;0.80;;;23.30;70.40;;;;;;5058247;28;20021;-96
2022/07/06 12:29:21;;;;;;;2.78;0.75;;;23.30;69.70;;;;;;5047275;28;20013;-93
2022/07/06 12:31:56;;;;;;;3.50;0.63;;;23.40;69.10;;;;;;5042329;28;20068;-90
2022/07/06 12:34:24;;;;;;;2.55;0.60;;;23.40;68.50;;;;;;5057909;28;20096;-90
2022/07/06 12:36:51;;;;;;;3.15;0.80;;;23.50;68.50;;;;;;5056685;28;20493;-86
2022/07/06 12:39:18;;;;;;;3.15;0.60;;;23.60;68.10;;;;;;5039362;28;20349;-92
2022/07/06 12:41:49;;;;;;;3.40;0.77;;;23.60;67.40;;;;;;5039187;28;20033;-92
2022/07/06 12:44:23;;;;;;;2.70;0.75;;;23.70;67.10;;;;;;5018516;28;20488;-88
2022/07/06 12:47:09;;;;;;;1.20;0.73;;;23.70;66.70;;;;;;5056618;28;20025;-87
2022/07/06 12:49:37;;;;;;;1.73;0.63;;;23.70;66.20;;;;;;5025824;28;20560;-89
2022/07/06 12:52:11;;;;;;;3.65;0.80;;;23.70;66.00;;;;;;5038276;28;20116;-87
2022/07/06 12:54:46;;;;;;;1.98;0.70;;;23.80;66.60;;;;;;5038685;28;20017;-87
2022/07/06 12:57:26;;;;;;;1.20;0.50;;;23.80;66.90;;;;;;5038599;28;20384;-87
2022/07/06 12:59:56;;;;;;;1.67;0.75;;;23.90;66.70;;;;;;5043945;28;20052;-87
2022/07/06 13:02:33;;;;;;;4.35;0.77;;;23.90;66.30;;;;;;5056235;28;20086;-87
2022/07/06 13:05:08;;;;;;;0.95;0.52;;;24.00;66.40;;;;;;5044615;28;20046;-89
2022/07/06 13:07:35;;;;;;;2.78;0.65;;;24.00;65.60;;;;;;5049479;28;20461;-88
2022/07/06 13:10:03;;;;;;;2.58;0.80;;;24.10;65.60;;;;;;5056055;28;20033;-88
2022/07/06 13:12:28;;;;;;;2.75;0.90;;;24.10;65.40;;;;;;5072459;28;20480;-89
2022/07/06 13:14:54;;;;;;;1.73;0.52;;;24.10;64.30;;;;;;5033266;28;20033;-89
2022/07/06 13:17:20;;;;;;;1.65;0.52;;;24.10;64.70;;;;;;5029883;28;20033;-88
2022/07/06 13:19:46;;;;;;;2.50;0.70;;;24.10;64.20;;;;;;5026043;28;20497;-89
2022/07/06 13:22:11;;;;;;;2.03;0.50;;;24.20;64.50;;;;;;5033784;28;20029;-88
2022/07/06 13:24:38;;;;;;;2.35;1.10;;;24.20;64.00;;;;;;5071101;28;20031;-89
2022/07/06 13:27:05;;;;;;;2.47;0.70;;;24.20;63.80;;;;;;5054056;28;20033;-89
2022/07/06 13:29:30;;;;;;;1.77;0.60;;;24.20;63.70;;;;;;5059020;28;20450;-89
2022/07/06 13:31:56;;;;;;;2.15;0.70;;;24.30;64.10;;;;;;5041124;28;20029;-88
2022/07/06 13:34:23;;;;;;;2.05;0.63;;;24.30;64.20;;;;;;5038827;28;20546;-87
2022/07/06 13:36:49;;;;;;;1.80;0.73;;;24.30;64.60;;;;;;5045829;28;20051;-88
2022/07/06 13:39:16;;;;;;;2.33;0.70;;;24.30;63.90;;;;;;5055849;28;20029;-95
2022/07/06 13:41:42;;;;;;;0.95;0.50;;;24.30;64.00;;;;;;5043432;28;20029;-92
2022/07/06 13:44:09;;;;;;;2.28;0.85;;;24.30;64.30;;;;;;5051679;28;20055;-94
2022/07/06 13:46:36;;;;;;;1.70;0.60;;;24.30;63.90;;;;;;5042368;28;20028;-87
2022/07/06 13:49:04;;;;;;;4.88;0.80;;;24.40;63.70;;;;;;5049610;28;20036;-88
2022/07/06 13:51:31;;;;;;;2.30;0.65;;;24.40;63.50;;;;;;5038817;28;20033;-87
2022/07/06 13:53:57;;;;;;;3.22;0.77;;;24.30;63.20;;;;;;5044139;28;20033;-87
2022/07/06 13:56:23;;;;;;;1.67;0.80;;;24.40;63.20;;;;;;5021162;28;20457;-87
2022/07/06 13:58:49;;;;;;;3.03;0.70;;;24.30;63.30;;;;;;5037773;28;20029;-87
2022/07/06 14:01:14;;;;;;;2.50;0.63;;;24.40;63.20;;;;;;5027140;28;20422;-87
2022/07/06 14:03:40;;;;;;;2.25;0.60;;;24.30;63.10;;;;;;5048212;28;20079;-88
2022/07/06 14:06:07;;;;;;;3.08;0.70;;;24.30;62.90;;;;;;5020621;28;20030;-88
2022/07/06 14:08:34;;;;;;;3.10;0.90;;;24.30;63.10;;;;;;5054253;28;20049;-90
2022/07/06 14:11:00;;;;;;;2.80;0.70;;;24.40;63.30;;;;;;5057393;28;20044;-92
2022/07/06 14:13:27;;;;;;;1.48;0.52;;;24.40;63.00;;;;;;5076721;28;20119;-92
2022/07/06 14:15:53;;;;;;;2.63;0.80;;;24.40;62.60;;;;;;5058559;28;20035;-92
2022/07/06 14:18:19;;;;;;;1.83;0.52;;;24.40;62.80;;;;;;5058002;28;20120;-91
2022/07/06 14:20:46;;;;;;;1.95;0.77;;;24.40;61.70;;;;;;5074780;28;20024;-93
2022/07/06 14:23:13;;;;;;;2.53;0.65;;;24.40;62.70;;;;;;5042699;28;20028;-92
2022/07/06 14:25:40;;;;;;;5.80;1.00;;;24.40;62.10;;;;;;5052620;28;20017;-93
2022/07/06 14:28:06;;;;;;;4.35;0.80;;;24.40;61.70;;;;;;5054961;28;20029;-93
2022/07/06 14:30:39;;;;;;;1.08;0.60;;;24.50;61.70;;;;;;5040496;28;20012;-93
2022/07/06 14:33:08;;;;;;;1.60;0.60;;;24.50;62.90;;;;;;5055960;28;20087;-94
2022/07/06 14:35:41;;;;;;;5.03;0.88;;;24.50;63.10;;;;;;5050016;28;20483;-92
2022/07/06 14:38:08;;;;;;;1.95;0.88;;;24.60;62.50;;;;;;5054984;28;20096;-90
2022/07/06 14:40:35;;;;;;;3.08;0.90;;;24.60;62.30;;;;;;5045276;28;20534;-92
2022/07/06 14:43:01;;;;;;;2.42;0.75;;;24.70;62.30;;;;;;5043401;28;20032;-91
2022/07/06 14:45:27;;;;;;;2.20;0.77;;;24.80;61.70;;;;;;5048840;28;20037;-91
2022/07/06 14:47:53;;;;;;;2.13;0.50;;;24.80;61.20;;;;;;5071519;28;20574;-94
2022/07/06 14:50:19;;;;;;;2.60;0.70;;;24.80;61.10;;;;;;5054670;28;20485;-92
2022/07/06 14:52:45;;;;;;;4.72;1.10;;;24.80;61.00;;;;;;5038141;28;20033;-93
2022/07/06 14:55:11;;;;;;;2.97;1.02;;;24.90;61.20;;;;;;5070849;28;20027;-91
2022/07/06 14:57:37;;;;;;;2.53;0.80;;;24.90;61.10;;;;;;5055504;28;20025;-91
2022/07/06 15:00:04;;;;;;;2.67;0.75;;;24.90;60.70;;;;;;5023353;28;20029;-93
2022/07/06 15:02:29;;;;;;;3.88;1.00;;;24.90;60.40;;;;;;5064464;28;20033;-91
2022/07/06 15:04:55;;;;;;;4.63;0.82;;;24.90;60.50;;;;;;5007487;28;20125;-91
2022/07/06 15:07:21;;;;;;;2.42;0.77;;;24.90;60.50;;;;;;5050109;28;20060;-93
2022/07/06 15:09:47;;;;;;;2.38;0.90;;;24.80;60.40;;;;;;5058118;28;20029;-92
2022/07/06 15:12:13;;;;;;;3.22;0.90;;;24.80;60.30;;;;;;5033283;28;20029;-92
2022/07/06 15:14:41;;;;;;;3.47;0.85;;;24.80;60.30;;;;;;5035032;28;20036;-93
2022/07/06 15:17:07;;;;;;;3.75;1.08;;;24.80;60.00;;;;;;5014701;28;20025;-93
2022/07/06 15:19:33;;;;;;;2.85;1.00;;;24.70;60.00;;;;;;5034197;28;20034;-89
2022/07/06 15:21:59;;;;;;;4.07;0.93;;;24.70;60.40;;;;;;5034793;28;20037;-88
2022/07/06 15:24:24;;;;;;;3.35;1.08;;;24.60;60.60;;;;;;5003040;28;20482;-88
2022/07/06 15:26:51;;;;;;;6.28;1.15;;;24.60;61.00;;;;;;5034902;28;20037;-89